createdAt,value
2023-03-17T00:01:58.556Z,98.30
2023-03-17T00:04:27.868Z,55.00
2023-03-17T00:06:58.235Z,56.50
2023-03-17T00:09:27.253Z,55.50
2023-03-17T00:11:55.787Z,35.80
2023-03-17T00:14:24.073Z,32.80
2023-03-17T00:16:53.374Z,29.90
2023-03-17T00:19:32.415Z,32.10
2023-03-17T00:24:46.853Z,33.40
2023-03-17T00:27:15.754Z,34.50
2023-03-17T00:29:44.362Z,31.80
2023-03-17T00:32:21.713Z,29.30
2023-03-17T00:34:53.809Z,29.20
2023-03-17T00:37:22.474Z,39.00
2023-03-17T00:42:26.264Z,34.40
2023-03-17T00:44:57.837Z,32.50
2023-03-17T00:47:30.711Z,34.10
2023-03-17T00:50:57.486Z,35.10
2023-03-17T00:53:29.119Z,28.70
2023-03-17T00:56:01.288Z,36.00
2023-03-17T00:58:34.618Z,33.80
2023-03-17T01:01:03.341Z,28.10
2023-03-17T01:03:33.704Z,25.10
2023-03-17T01:06:04.531Z,63.70
2023-03-17T01:08:36.912Z,96.70
2023-03-17T01:11:05.906Z,48.40
2023-03-17T01:13:51.170Z,59.50
2023-03-17T01:16:21.916Z,31.00
2023-03-17T01:18:50.687Z,26.00
2023-03-17T01:21:19.364Z,29.30
2023-03-17T01:23:57.692Z,29.20
2023-03-17T01:26:27.001Z,18.50
2023-03-17T01:29:02.747Z,28.40
2023-03-17T01:31:36.699Z,21.00
2023-03-17T01:34:13.116Z,19.70
2023-03-17T01:36:46.206Z,22.80
2023-03-17T01:39:18.514Z,15.90
2023-03-17T01:41:48.262Z,17.60
2023-03-17T01:44:39.202Z,17.80
2023-03-17T01:50:49.279Z,16.30
2023-03-17T01:53:37.302Z,14.40
2023-03-17T01:56:15.254Z,13.70
2023-03-17T01:58:52.708Z,12.90
2023-03-17T02:01:29.709Z,7.90
2023-03-17T02:04:05.747Z,15.00
2023-03-17T02:06:58.003Z,12.90
2023-03-17T02:09:36.155Z,14.40
2023-03-17T02:12:12.448Z,12.30
2023-03-17T02:14:47.585Z,11.70
2023-03-17T02:17:27.639Z,10.60
2023-03-17T02:20:33.650Z,12.50
2023-03-17T02:23:04.533Z,13.60
2023-03-17T02:28:51.482Z,10.10
2023-03-17T02:31:39.817Z,14.00
2023-03-17T02:37:09.267Z,12.00
2023-03-17T02:39:49.916Z,11.40
2023-03-17T02:42:23.008Z,13.80
2023-03-17T02:45:07.553Z,11.20
2023-03-17T02:47:42.806Z,14.40
2023-03-17T02:50:22.424Z,9.10
2023-03-17T02:52:52.980Z,9.20
2023-03-17T02:55:23.001Z,13.40
2023-03-17T02:58:05.618Z,8.30
2023-03-17T03:00:35.596Z,11.80
2023-03-17T03:03:04.826Z,12.70
2023-03-17T03:05:33.823Z,9.50
2023-03-17T03:08:03.743Z,12.50
2023-03-17T03:10:33.073Z,9.60
2023-03-17T03:13:02.753Z,10.40
2023-03-17T03:15:31.960Z,10.20
2023-03-17T03:18:03.379Z,9.70
2023-03-17T03:20:32.805Z,9.20
2023-03-17T03:23:02.109Z,13.20
2023-03-17T03:25:52.298Z,9.80
2023-03-17T03:28:22.412Z,9.60
2023-03-17T03:30:51.260Z,11.50
2023-03-17T03:33:20.549Z,10.60
2023-03-17T03:35:50.016Z,13.60
2023-03-17T03:41:22.514Z,15.80
2023-03-17T03:43:56.416Z,7.50
2023-03-17T03:46:38.990Z,7.80
2023-03-17T03:49:23.179Z,9.40
2023-03-17T03:52:00.167Z,10.00
2023-03-17T03:54:51.268Z,7.20
2023-03-17T03:57:20.466Z,9.60
2023-03-17T04:00:01.720Z,38.30
2023-03-17T04:02:57.869Z,9.30
2023-03-17T04:05:32.401Z,13.30
2023-03-17T04:08:07.833Z,14.20
2023-03-17T04:10:52.611Z,12.00
2023-03-17T04:13:31.126Z,9.80
2023-03-17T04:16:05.815Z,8.30
2023-03-17T04:18:38.080Z,7.70
2023-03-17T04:21:08.700Z,7.20
2023-03-17T04:23:49.644Z,49.10
2023-03-17T04:26:23.547Z,237.80
2023-03-17T04:28:53.441Z,123.90
2023-03-17T04:31:24.538Z,121.10
2023-03-17T04:33:52.580Z,22.30
2023-03-17T04:36:23.992Z,12.60
2023-03-17T04:42:01.704Z,11.10
2023-03-17T04:44:28.457Z,12.00
2023-03-17T04:46:55.205Z,10.20
2023-03-17T04:49:22.145Z,9.00
2023-03-17T04:51:51.339Z,10.40
2023-03-17T04:54:17.820Z,7.90
2023-03-17T04:56:44.409Z,5.00
2023-03-17T04:59:11.270Z,6.20
2023-03-17T05:01:43.037Z,6.40
2023-03-17T05:04:11.139Z,6.60
2023-03-17T05:06:40.013Z,10.60
2023-03-17T05:09:07.041Z,6.10
2023-03-17T05:11:34.355Z,13.20
2023-03-17T05:14:01.308Z,11.70
2023-03-17T05:16:28.039Z,13.00
2023-03-17T05:18:54.799Z,18.70
2023-03-17T05:21:21.971Z,14.60
2023-03-17T05:23:49.305Z,9.10
2023-03-17T05:26:18.503Z,7.60
2023-03-17T05:28:48.216Z,6.60
2023-03-17T05:31:14.951Z,7.50
2023-03-17T05:33:41.748Z,9.40
2023-03-17T05:36:08.710Z,10.10
2023-03-17T05:38:35.473Z,8.70
2023-03-17T05:41:03.453Z,5.90
2023-03-17T05:43:30.115Z,9.00
2023-03-17T05:45:58.932Z,8.30
2023-03-17T05:48:25.963Z,10.70
2023-03-17T05:50:55.631Z,7.60
2023-03-17T05:53:22.991Z,7.00
2023-03-17T05:55:51.469Z,10.70
2023-03-17T05:58:18.631Z,8.20
2023-03-17T06:00:45.596Z,10.40
2023-03-17T06:03:12.828Z,9.00
2023-03-17T06:05:40.092Z,7.30
2023-03-17T06:08:06.918Z,9.30
2023-03-17T06:10:33.713Z,10.00
2023-03-17T06:13:03.311Z,9.80
2023-03-17T06:15:30.737Z,14.00
2023-03-17T06:17:57.461Z,13.20
2023-03-17T06:20:24.465Z,12.60
2023-03-17T06:23:03.494Z,8.50
2023-03-17T06:25:33.804Z,9.80
2023-03-17T06:28:02.938Z,10.00
2023-03-17T06:30:30.681Z,5.60
2023-03-17T06:32:57.504Z,7.50
2023-03-17T06:35:30.140Z,7.40
2023-03-17T06:37:57.269Z,5.30
2023-03-17T06:40:23.935Z,6.90
2023-03-17T06:42:51.355Z,8.60
2023-03-17T06:45:20.627Z,8.20
2023-03-17T06:47:47.323Z,7.00
2023-03-17T06:50:21.520Z,8.40
2023-03-17T06:52:48.169Z,6.80
2023-03-17T06:55:15.438Z,7.20
2023-03-17T06:57:42.169Z,6.20
2023-03-17T07:00:13.382Z,8.50
2023-03-17T07:02:47.185Z,5.50
2023-03-17T07:05:14.096Z,6.90
2023-03-17T07:07:41.042Z,9.60
2023-03-17T07:10:09.739Z,6.70
2023-03-17T07:12:37.055Z,7.60
2023-03-17T07:15:03.934Z,7.50
2023-03-17T07:17:30.832Z,9.10
2023-03-17T07:19:57.734Z,10.20
2023-03-17T07:22:44.810Z,7.50
2023-03-17T07:25:24.722Z,9.40
2023-03-17T07:27:51.403Z,10.10
2023-03-17T07:30:18.664Z,7.10
2023-03-17T07:33:06.424Z,6.90
2023-03-17T07:35:53.555Z,8.40
2023-03-17T07:38:23.347Z,8.20
2023-03-17T07:40:50.271Z,7.80
2023-03-17T07:43:24.196Z,7.60
2023-03-17T07:45:53.297Z,7.10
2023-03-17T07:48:30.547Z,9.70
2023-03-17T07:50:57.386Z,6.50
2023-03-17T07:53:26.619Z,9.50
2023-03-17T07:55:53.740Z,9.60
2023-03-17T07:58:21.190Z,7.60
2023-03-17T08:00:48.136Z,7.40
2023-03-17T08:03:14.924Z,13.70
2023-03-17T08:05:44.909Z,7.50
2023-03-17T08:08:12.148Z,8.90
2023-03-17T08:10:39.098Z,9.10
2023-03-17T08:13:05.491Z,7.60
2023-03-17T08:15:32.066Z,8.30
2023-03-17T08:17:59.091Z,8.10
2023-03-17T08:20:25.633Z,7.00
2023-03-17T08:22:52.041Z,6.10
2023-03-17T08:25:18.508Z,8.20
2023-03-17T08:27:45.121Z,7.10
2023-03-17T08:30:12.105Z,6.70
2023-03-17T08:32:38.753Z,7.90
2023-03-17T08:35:05.767Z,8.10
2023-03-17T08:37:32.226Z,8.40
2023-03-17T08:39:58.762Z,4.90
2023-03-17T08:42:25.488Z,5.90
2023-03-17T08:44:52.215Z,6.90
2023-03-17T08:47:18.750Z,5.90
2023-03-17T08:49:45.244Z,8.20
2023-03-17T08:52:12.294Z,13.40
2023-03-17T08:54:38.850Z,6.40
2023-03-17T08:57:05.251Z,6.40
2023-03-17T08:59:34.626Z,7.20
2023-03-17T09:02:01.160Z,6.40
2023-03-17T09:04:28.392Z,7.00
2023-03-17T09:07:03.287Z,7.50
2023-03-17T09:09:30.738Z,9.20
2023-03-17T09:11:58.138Z,5.70
2023-03-17T09:14:28.309Z,7.20
2023-03-17T09:17:15.382Z,10.10
2023-03-17T09:19:42.934Z,9.10
2023-03-17T09:22:13.674Z,15.30
2023-03-17T09:27:35.941Z,6.40
2023-03-17T09:30:13.492Z,9.40
2023-03-17T09:32:40.207Z,6.50
2023-03-17T09:35:14.538Z,7.80
2023-03-17T09:40:57.207Z,7.00
2023-03-17T09:43:25.074Z,5.70
2023-03-17T09:45:53.397Z,10.70
2023-03-17T09:48:28.458Z,7.80
2023-03-17T09:51:07.962Z,5.40
2023-03-17T09:53:41.505Z,5.90
2023-03-17T09:56:15.437Z,6.80
2023-03-17T09:59:03.914Z,8.60
2023-03-17T10:01:32.432Z,5.70
2023-03-17T10:04:02.788Z,5.00
2023-03-17T10:06:33.588Z,4.80
2023-03-17T10:09:16.780Z,6.80
2023-03-17T10:11:48.791Z,5.90
2023-03-17T10:14:38.400Z,7.50
2023-03-17T10:17:16.630Z,12.50
2023-03-17T10:20:02.275Z,8.00
2023-03-17T10:22:32.950Z,8.60
2023-03-17T10:25:03.937Z,6.60
2023-03-17T10:27:34.282Z,7.10
2023-03-17T10:30:02.133Z,5.00
2023-03-17T10:32:31.201Z,7.60
2023-03-17T10:34:59.129Z,7.70
2023-03-17T10:37:29.676Z,6.40
2023-03-17T10:42:33.037Z,7.60
2023-03-17T10:45:13.407Z,7.50
2023-03-17T10:47:44.663Z,6.90
2023-03-17T10:50:46.345Z,7.00
2023-03-17T10:56:22.700Z,7.50
2023-03-17T10:58:52.074Z,6.90
2023-03-17T11:01:30.651Z,6.60
2023-03-17T11:04:02.550Z,6.60
2023-03-17T11:06:37.130Z,8.20
2023-03-17T11:09:11.006Z,9.60
2023-03-17T11:11:43.737Z,6.10
2023-03-17T11:14:13.613Z,6.60
2023-03-17T11:17:00.220Z,7.70
2023-03-17T11:19:33.921Z,8.00
2023-03-17T11:22:10.016Z,9.50
2023-03-17T11:24:46.082Z,8.20
2023-03-17T11:27:14.245Z,7.50
2023-03-17T11:29:53.909Z,7.30
2023-03-17T11:32:51.290Z,7.50
2023-03-17T11:35:25.181Z,11.20
2023-03-17T11:37:53.046Z,10.20
2023-03-17T11:40:34.049Z,8.60
2023-03-17T11:43:14.322Z,11.30
2023-03-17T11:45:59.135Z,9.40
2023-03-17T11:48:28.178Z,7.20
2023-03-17T11:50:59.912Z,7.30
2023-03-17T11:53:33.969Z,6.70
2023-03-17T11:56:04.485Z,12.20
2023-03-17T11:58:37.157Z,7.00
2023-03-17T12:01:09.331Z,9.40
2023-03-17T12:03:43.379Z,6.30
2023-03-17T12:06:37.713Z,7.90
2023-03-17T12:09:10.152Z,7.10
2023-03-17T12:11:40.733Z,8.20
2023-03-17T12:14:32.698Z,12.00
2023-03-17T12:17:05.369Z,15.80
2023-03-17T12:19:52.471Z,7.90
2023-03-17T12:22:21.257Z,11.10
2023-03-17T12:25:25.769Z,10.80
2023-03-17T12:28:03.981Z,10.50
2023-03-17T12:31:01.273Z,9.70
2023-03-17T12:33:29.070Z,11.30
2023-03-17T12:35:58.410Z,8.20
2023-03-17T12:38:46.586Z,7.20
2023-03-17T12:41:39.807Z,8.80
2023-03-17T12:44:26.302Z,7.10
2023-03-17T12:47:06.871Z,7.60
2023-03-17T12:49:38.003Z,8.70
2023-03-17T12:52:12.633Z,8.60
2023-03-17T12:54:52.064Z,11.20
2023-03-17T12:57:28.055Z,11.30
2023-03-17T13:00:05.657Z,10.50
2023-03-17T13:02:38.410Z,11.40
2023-03-17T13:05:09.286Z,13.50
2023-03-17T13:07:37.064Z,10.50
2023-03-17T13:10:14.615Z,7.70
2023-03-17T13:12:45.748Z,8.20
2023-03-17T13:15:23.660Z,10.50
2023-03-17T13:17:52.859Z,9.00
2023-03-17T13:20:21.037Z,9.30
2023-03-17T13:23:24.361Z,9.70
2023-03-17T13:26:03.999Z,13.00
2023-03-17T13:28:43.195Z,14.80
2023-03-17T13:31:32.537Z,11.80
2023-03-17T13:34:17.814Z,10.20
2023-03-17T13:36:57.143Z,9.70
2023-03-17T13:39:46.347Z,12.50
2023-03-17T13:42:43.534Z,12.20
2023-03-17T13:45:54.348Z,12.10
2023-03-17T13:48:36.098Z,9.20
2023-03-17T13:51:15.122Z,10.80
2023-03-17T13:53:53.606Z,11.50
2023-03-17T13:56:48.008Z,9.20
2023-03-17T13:59:39.025Z,11.60
2023-03-17T14:05:05.898Z,16.90
2023-03-17T14:07:56.886Z,11.60
2023-03-17T14:13:12.349Z,12.80
2023-03-17T14:27:27.972Z,12.50
2023-03-17T14:29:54.711Z,12.40
2023-03-17T14:32:23.257Z,10.30
2023-03-17T14:34:57.211Z,16.10
2023-03-17T14:37:24.574Z,11.50
2023-03-17T14:39:53.114Z,13.70
2023-03-17T14:42:25.327Z,14.70
2023-03-17T14:44:59.495Z,8.40
2023-03-17T14:47:26.544Z,12.40
2023-03-17T14:49:53.936Z,10.30
2023-03-17T14:52:23.413Z,10.00
2023-03-17T14:54:52.156Z,11.90
2023-03-17T14:57:21.952Z,10.30
2023-03-17T15:00:01.364Z,18.50
2023-03-17T15:02:32.341Z,14.30
2023-03-17T15:07:46.009Z,19.80
2023-03-17T15:10:15.816Z,11.50
2023-03-17T15:12:42.914Z,10.40
2023-03-17T15:15:19.172Z,10.80
2023-03-17T15:17:46.742Z,11.20
2023-03-17T15:20:16.150Z,13.90
2023-03-17T15:22:51.539Z,21.80
2023-03-17T15:25:23.748Z,24.00
2023-03-17T15:27:51.038Z,14.20
2023-03-17T15:30:21.235Z,14.30
2023-03-17T15:32:59.333Z,31.00
2023-03-17T15:35:28.820Z,27.80
2023-03-17T15:37:57.808Z,13.90
2023-03-17T15:40:27.014Z,22.20
2023-03-17T15:42:53.658Z,21.80
2023-03-17T15:45:20.270Z,15.70
2023-03-17T15:47:49.793Z,13.70
2023-03-17T15:50:23.356Z,11.30
2023-03-17T15:52:53.296Z,10.50
2023-03-17T15:55:42.423Z,17.90
2023-03-17T15:58:09.350Z,28.50
2023-03-17T16:00:36.169Z,17.00
2023-03-17T16:03:31.681Z,13.50
2023-03-17T16:05:59.438Z,15.90
2023-03-17T16:08:26.107Z,12.50
2023-03-17T16:10:55.186Z,13.70
2023-03-17T16:13:21.825Z,12.30
2023-03-17T16:15:53.569Z,16.10
2023-03-17T16:18:24.398Z,10.70
2023-03-17T16:20:51.679Z,17.40
2023-03-17T16:23:20.649Z,11.70
2023-03-17T16:25:47.749Z,13.80
2023-03-17T16:28:14.301Z,10.90
2023-03-17T16:30:41.489Z,23.70
2023-03-17T16:33:24.568Z,11.60
2023-03-17T16:35:52.643Z,16.30
2023-03-17T16:38:20.646Z,19.30
2023-03-17T16:40:51.496Z,16.50
2023-03-17T16:43:25.754Z,13.00
2023-03-17T16:46:03.323Z,13.50
2023-03-17T16:48:30.515Z,12.70
2023-03-17T16:50:58.138Z,12.00
2023-03-17T16:53:25.014Z,13.20
2023-03-17T16:55:52.926Z,17.60
2023-03-17T16:58:21.242Z,16.10
2023-03-17T17:00:49.504Z,14.80
2023-03-17T17:03:26.275Z,14.00
2023-03-17T17:05:52.841Z,12.80
2023-03-17T17:08:19.725Z,12.50
2023-03-17T17:10:46.369Z,14.80
2023-03-17T17:13:12.808Z,12.50
2023-03-17T17:15:40.491Z,14.50
2023-03-17T17:18:18.276Z,12.20
2023-03-17T17:20:45.415Z,11.50
2023-03-17T17:23:15.162Z,12.00
2023-03-17T17:25:41.991Z,20.80
2023-03-17T17:28:09.864Z,15.50
2023-03-17T17:30:36.881Z,16.80
2023-03-17T17:33:04.013Z,17.60
2023-03-17T17:35:32.821Z,16.70
2023-03-17T17:38:01.005Z,11.40
2023-03-17T17:40:31.349Z,12.70
2023-03-17T17:43:01.558Z,13.00
2023-03-17T17:45:51.527Z,13.20
2023-03-17T17:48:21.789Z,12.60
2023-03-17T17:50:49.314Z,17.30
2023-03-17T17:53:17.420Z,13.30
2023-03-17T17:55:51.420Z,16.00
2023-03-17T17:58:20.887Z,22.70
2023-03-17T18:00:48.344Z,17.40
2023-03-17T18:03:24.497Z,18.00
2023-03-17T18:05:55.575Z,14.60
2023-03-17T18:08:23.109Z,20.10
2023-03-17T18:10:51.943Z,16.80
2023-03-17T18:13:19.057Z,19.00
2023-03-17T18:15:51.670Z,15.50
2023-03-17T18:18:24.255Z,18.60
2023-03-17T18:20:59.169Z,17.10
2023-03-17T18:23:38.013Z,13.70
2023-03-17T18:26:05.543Z,15.70
2023-03-17T18:28:35.943Z,13.30
2023-03-17T18:31:06.039Z,18.70
2023-03-17T18:33:39.920Z,15.80
2023-03-17T18:36:08.149Z,15.60
2023-03-17T18:38:35.498Z,12.70
2023-03-17T18:41:03.099Z,11.90
2023-03-17T18:43:30.309Z,20.60
2023-03-17T18:46:06.029Z,17.90
2023-03-17T18:48:35.713Z,24.00
2023-03-17T18:51:02.511Z,13.20
2023-03-17T18:53:34.006Z,16.40
2023-03-17T18:56:01.223Z,12.80
2023-03-17T18:58:28.299Z,14.10
2023-03-17T19:00:59.166Z,12.40
2023-03-17T19:03:31.510Z,18.70
2023-03-17T19:06:06.629Z,12.30
2023-03-17T19:08:33.110Z,16.10
2023-03-17T19:10:59.846Z,14.60
2023-03-17T19:13:26.665Z,25.40
2023-03-17T19:15:56.733Z,14.00
2023-03-17T19:18:23.587Z,14.20
2023-03-17T19:20:50.305Z,13.30
2023-03-17T19:23:20.119Z,15.00
2023-03-17T19:25:50.151Z,20.40
2023-03-17T19:28:19.557Z,19.20
2023-03-17T19:30:48.884Z,14.20
2023-03-17T19:33:16.185Z,23.20
2023-03-17T19:35:47.645Z,14.60
2023-03-17T19:38:36.833Z,27.60
2023-03-17T19:41:04.305Z,17.20
2023-03-17T19:43:40.373Z,18.80
2023-03-17T19:46:09.301Z,18.10
2023-03-17T19:48:38.764Z,16.90
2023-03-17T19:51:17.600Z,22.80
2023-03-17T19:53:44.615Z,33.90
2023-03-17T19:56:11.244Z,20.00
2023-03-17T19:58:37.991Z,41.70
2023-03-17T20:01:06.144Z,14.60
2023-03-17T20:03:33.210Z,16.50
2023-03-17T20:06:05.163Z,25.20
2023-03-17T20:08:33.002Z,13.80
2023-03-17T20:11:02.640Z,12.20
2023-03-17T20:13:29.504Z,10.80
2023-03-17T20:15:56.746Z,10.70
2023-03-17T20:18:23.702Z,15.10
2023-03-17T20:20:54.278Z,13.10
2023-03-17T20:23:22.084Z,18.40
2023-03-17T20:25:52.827Z,21.30
2023-03-17T20:28:20.990Z,59.10
2023-03-17T20:31:02.007Z,26.50
2023-03-17T20:33:28.910Z,30.80
2023-03-17T20:36:16.128Z,22.50
2023-03-17T20:38:43.265Z,22.70
2023-03-17T20:41:11.890Z,21.60
2023-03-17T20:43:39.728Z,15.90
2023-03-17T20:46:14.374Z,19.30
2023-03-17T20:48:43.654Z,25.50
2023-03-17T20:51:15.131Z,14.70
2023-03-17T20:53:44.034Z,18.30
2023-03-17T20:56:12.791Z,13.30
2023-03-17T20:58:44.787Z,17.70
2023-03-17T21:01:12.306Z,17.00
2023-03-17T21:03:43.290Z,19.50
2023-03-17T21:06:12.700Z,15.20
2023-03-17T21:08:39.904Z,16.10
2023-03-17T21:11:10.534Z,14.70
2023-03-17T21:13:38.116Z,15.80
2023-03-17T21:16:05.266Z,15.80
2023-03-17T21:18:34.650Z,13.40
2023-03-17T21:21:01.229Z,17.40
2023-03-17T21:23:31.402Z,11.10
2023-03-17T21:26:01.419Z,12.90
2023-03-17T21:28:31.702Z,11.50
2023-03-17T21:31:01.530Z,13.80
2023-03-17T21:33:28.825Z,11.00
2023-03-17T21:35:58.123Z,10.80
2023-03-17T21:38:26.893Z,11.00
2023-03-17T21:40:57.783Z,13.30
2023-03-17T21:43:24.803Z,17.80
2023-03-17T21:45:54.499Z,17.00
2023-03-17T21:48:21.636Z,23.10
2023-03-17T21:50:48.688Z,48.90
2023-03-17T21:53:20.693Z,12.60
2023-03-17T21:55:48.315Z,12.20
2023-03-17T21:58:21.503Z,13.90
2023-03-17T22:00:59.976Z,15.10
2023-03-17T22:04:07.616Z,17.40
2023-03-17T22:06:41.663Z,27.30
2023-03-17T22:09:10.487Z,16.90
2023-03-17T22:11:40.740Z,16.50
2023-03-17T22:14:12.667Z,19.80
2023-03-17T22:16:39.559Z,9.30
2023-03-17T22:19:09.681Z,12.50
2023-03-17T22:21:36.307Z,8.90
2023-03-17T22:24:03.348Z,12.30
2023-03-17T22:26:30.500Z,12.80
2023-03-17T22:29:04.547Z,9.10
2023-03-17T22:31:31.410Z,11.00
2023-03-17T22:34:03.650Z,9.30
2023-03-17T22:36:33.465Z,9.80
2023-03-17T22:39:22.921Z,12.70
2023-03-17T22:41:52.012Z,9.60
2023-03-17T22:44:42.096Z,10.00
2023-03-17T22:47:11.958Z,10.20
2023-03-17T22:49:41.231Z,11.60
2023-03-17T22:52:11.225Z,12.50
2023-03-17T22:54:38.172Z,14.70
2023-03-17T22:57:14.857Z,10.90
2023-03-17T22:59:41.781Z,10.20
2023-03-17T23:02:08.761Z,10.70
2023-03-17T23:04:36.328Z,10.60
2023-03-17T23:07:10.628Z,10.50
2023-03-17T23:09:47.925Z,9.40
2023-03-17T23:15:18.238Z,9.80
2023-03-17T23:17:47.467Z,11.10
2023-03-17T23:20:24.408Z,8.90
2023-03-17T23:23:04.026Z,9.50
2023-03-17T23:25:33.232Z,7.00
2023-03-17T23:28:00.262Z,8.30
2023-03-17T23:30:27.182Z,9.50
2023-03-17T23:33:05.948Z,10.40
2023-03-17T23:35:36.058Z,8.90
2023-03-17T23:38:03.740Z,7.70
2023-03-17T23:40:40.840Z,8.30
2023-03-17T23:43:07.855Z,10.30
2023-03-17T23:45:38.280Z,11.30
2023-03-17T23:48:04.925Z,9.30
2023-03-17T23:50:34.321Z,9.40
2023-03-17T23:53:01.932Z,13.50
2023-03-17T23:55:39.530Z,14.90
2023-03-17T23:58:14.455Z,7.50
